Time;durP1;ratioP1;P1;durP2;ratioP2;P2;SDS_P1;SDS_P2;PMS_P1;PMS_P2;Temp;Humidity;BMP_temperature;BMP_pressure;BME280_temperature;BME280_humidity;BME280_pressure;Samples;Min_cycle;Max_cycle;Signal;HPM_P1;HPM_P2
2022/10/07 00:01:57;;;;;;;1999.90;999.90;;;11.40;1.00;;;;;;5036181;28;20032;-85
2022/10/07 00:04:23;;;;;;;1999.90;999.90;;;11.40;1.00;;;;;;5035846;28;20102;-84
2022/10/07 00:06:49;;;;;;;1999.90;999.90;;;11.60;1.00;;;;;;5052813;28;20041;-89
2022/10/07 00:09:14;;;;;;;1999.90;999.90;;;11.20;1.00;;;;;;5019706;28;20402;-84
2022/10/07 00:11:41;;;;;;;1999.90;999.90;;;11.30;1.00;;;;;;5035543;28;20052;-84
2022/10/07 00:14:07;;;;;;;1999.90;999.90;;;11.20;1.00;;;;;;5068660;28;20053;-86
2022/10/07 00:16:36;;;;;;;1999.90;999.90;;;11.30;1.00;;;;;;5053183;28;20524;-91
2022/10/07 00:19:04;;;;;;;1999.90;999.90;;;11.20;1.00;;;;;;5052975;28;20059;-84
2022/10/07 00:21:32;;;;;;;1999.90;999.90;;;11.30;1.00;;;;;;5018825;28;20045;-84
2022/10/07 00:23:58;;;;;;;1999.90;999.90;;;12.40;1.00;;;;;;5035214;28;20045;-84
2022/10/07 00:26:27;;;;;;;1999.90;999.90;;;11.10;1.00;;;;;;5035570;28;20163;-84
2022/10/07 00:28:53;;;;;;;1999.90;999.90;;;11.10;1.00;;;;;;5053081;28;20060;-84
2022/10/07 00:31:21;;;;;;;1999.90;999.90;;;11.10;1.00;;;;;;5068725;28;20129;-84
2022/10/07 00:33:47;;;;;;;1999.90;999.90;;;12.80;1.00;;;;;;5068615;28;20049;-84
2022/10/07 00:36:17;;;;;;;1999.90;999.90;;;11.00;1.00;;;;;;5068768;28;20184;-85
2022/10/07 00:38:43;;;;;;;1999.90;999.90;;;11.20;7.60;;;;;;5035883;28;20053;-84
2022/10/07 00:41:17;;;;;;;1999.90;999.90;;;11.00;21.60;;;;;;5036209;28;20052;-84
2022/10/07 00:43:43;;;;;;;1999.90;999.90;;;10.90;18.80;;;;;;5036333;28;20053;-85
2022/10/07 00:46:21;;;;;;;1999.90;999.90;;;10.90;10.70;;;;;;5069860;28;20055;-84
2022/10/07 00:48:48;;;;;;;1999.90;999.90;;;11.00;17.30;;;;;;5036480;28;20053;-83
2022/10/07 00:51:15;;;;;;;1999.90;999.90;;;11.00;25.60;;;;;;5052753;28;20048;-84
2022/10/07 00:53:45;;;;;;;1999.90;999.90;;;10.90;20.10;;;;;;5035941;28;20088;-84
2022/10/07 00:56:12;;;;;;;1999.90;999.90;;;10.90;42.80;;;;;;5036053;28;20044;-84
2022/10/07 00:58:40;;;;;;;1999.90;999.90;;;10.90;47.40;;;;;;5068739;28;20556;-83
2022/10/07 01:01:07;;;;;;;1999.90;999.90;;;10.90;28.30;;;;;;5068886;28;20400;-84
2022/10/07 01:03:34;;;;;;;1999.90;999.90;;;10.90;34.20;;;;;;5019229;28;20048;-84
2022/10/07 01:06:02;;;;;;;1999.90;999.90;;;11.00;62.40;;;;;;5053228;28;20053;-83
2022/10/07 01:08:28;;;;;;;;;;;10.80;55.00;;;;;;5035779;28;20045;-83
2022/10/07 01:11:24;;;;;;;1999.90;999.90;;;10.80;67.30;;;;;;5068614;28;19933;-84
2022/10/07 01:14:03;;;;;;;1999.90;999.90;;;10.90;54.70;;;;;;5067989;28;20049;-84
2022/10/07 01:16:56;;;;;;;1999.90;999.90;;;10.90;72.00;;;;;;5034753;28;20053;-84
2022/10/07 01:19:40;;;;;;;1999.90;999.90;;;10.80;92.80;;;;;;5068422;28;20367;-90
2022/10/07 01:22:27;;;;;;;1999.90;999.90;;;12.50;98.00;;;;;;5068264;28;20200;-84
2022/10/07 01:25:02;;;;;;;1999.90;999.90;;;10.70;94.00;;;;;;5067162;28;20127;-85
2022/10/07 01:27:28;;;;;;;1999.90;999.90;;;11.20;99.90;;;;;;5067200;28;20055;-84
2022/10/07 01:30:05;;;;;;;1999.90;999.90;;;10.70;99.90;;;;;;5051895;28;20045;-84
2022/10/07 01:32:36;;;;;;;1999.90;999.90;;;10.70;99.90;;;;;;5067866;28;20049;-84
2022/10/07 01:35:06;;;;;;;1999.90;999.90;;;12.20;99.90;;;;;;5052113;28;20044;-84
2022/10/07 01:37:39;;;;;;;1999.90;999.90;;;10.60;99.90;;;;;;5034417;28;20064;-84
2022/10/07 01:40:11;;;;;;;1999.90;999.90;;;11.00;99.90;;;;;;5034499;28;20049;-84
2022/10/07 01:42:38;;;;;;;1999.90;999.90;;;10.60;99.90;;;;;;5034223;28;20045;-84
2022/10/07 01:45:05;;;;;;;1999.90;999.90;;;10.70;99.90;;;;;;5034307;28;20083;-84
2022/10/07 01:47:32;;;;;;;1999.90;999.90;;;10.70;99.90;;;;;;5052466;28;20548;-84
2022/10/07 01:49:58;;;;;;;1999.90;999.90;;;10.50;99.90;;;;;;5050893;28;20049;-83
2022/10/07 01:52:45;;;;;;;1999.90;999.90;;;10.50;99.90;;;;;;5067642;28;20049;-83
2022/10/07 01:55:31;;;;;;;1999.90;999.90;;;10.50;99.90;;;;;;5052497;28;20041;-85
2022/10/07 01:58:09;;;;;;;1999.90;999.90;;;10.50;99.90;;;;;;5023444;28;20068;-84
2022/10/07 02:00:43;;;;;;;1999.90;999.90;;;10.50;99.90;;;;;;5033795;28;20507;-84
2022/10/07 02:03:09;;;;;;;1999.90;999.90;;;10.50;99.90;;;;;;5034868;28;20053;-84
2022/10/07 02:05:52;;;;;;;1999.90;999.90;;;10.50;99.90;;;;;;5067252;28;20063;-84
2022/10/07 02:08:34;;;;;;;1999.90;999.90;;;10.50;99.90;;;;;;5052060;28;20408;-84
2022/10/07 02:11:10;;;;;;;1999.90;999.90;;;10.40;99.90;;;;;;5017942;28;20067;-84
2022/10/07 02:14:13;;;;;;;1999.90;999.90;;;10.50;99.90;;;;;;5033691;28;20049;-84
2022/10/07 02:16:48;;;;;;;1999.90;999.90;;;10.50;99.90;;;;;;5034062;28;20096;-84
2022/10/07 02:19:34;;;;;;;1999.90;999.90;;;10.40;99.90;;;;;;5051770;28;20133;-84
2022/10/07 02:22:02;;;;;;;1999.90;999.90;;;10.50;99.90;;;;;;5067443;28;20056;-84
2022/10/07 02:24:32;;;;;;;1999.90;999.90;;;10.50;99.90;;;;;;5066653;28;20051;-83
2022/10/07 02:27:02;;;;;;;1999.90;999.90;;;10.70;99.90;;;;;;5033436;28;20358;-84
2022/10/07 02:29:32;;;;;;;1999.90;999.90;;;10.70;99.90;;;;;;5050625;28;20063;-84
2022/10/07 02:32:02;;;;;;;1999.90;999.90;;;10.50;99.90;;;;;;5034602;28;20049;-84
2022/10/07 02:34:30;;;;;;;1999.90;999.90;;;10.50;99.90;;;;;;5051569;28;20045;-84
2022/10/07 02:37:07;;;;;;;1999.90;999.90;;;10.40;99.90;;;;;;5033500;28;20041;-87
2022/10/07 02:39:33;;;;;;;1999.90;999.90;;;10.40;99.90;;;;;;5067169;28;20041;-94
2022/10/07 02:42:25;;;;;;;1999.90;999.90;;;10.30;99.90;;;;;;5033422;28;20051;-83
2022/10/07 02:45:19;;;;;;;1999.90;999.90;;;10.40;99.90;;;;;;5066698;28;20378;-84
2022/10/07 02:47:49;;;;;;;1999.90;999.90;;;10.40;99.90;;;;;;5044726;28;20059;-85
2022/10/07 02:50:21;;;;;;;1999.90;999.90;;;10.60;99.90;;;;;;5071209;28;20041;-83
2022/10/07 02:52:50;;;;;;;1999.90;999.90;;;10.40;99.90;;;;;;5055089;28;20048;-84
2022/10/07 02:55:21;;;;;;;1999.90;999.90;;;11.40;99.90;;;;;;5070384;28;20052;-84
2022/10/07 02:57:50;;;;;;;1999.90;999.90;;;10.40;1.00;;;;;;5037497;28;20045;-84
2022/10/07 03:00:17;;;;;;;1999.90;999.90;;;11.60;99.90;;;;;;5021256;28;20060;-83
2022/10/07 03:02:47;;;;;;;1999.90;999.90;;;10.40;1.00;;;;;;5037711;28;20040;-84
2022/10/07 03:05:19;;;;;;;1999.90;999.90;;;11.30;1.00;;;;;;5037041;28;20125;-84
2022/10/07 03:07:52;;;;;;;1999.90;999.90;;;12.30;1.00;;;;;;5070767;28;20054;-84
2022/10/07 03:10:18;;;;;;;1999.90;999.90;;;10.40;1.00;;;;;;5021262;28;20055;-84
2022/10/07 03:12:44;;;;;;;1999.90;999.90;;;10.40;1.00;;;;;;5054937;28;20140;-85
2022/10/07 03:15:10;;;;;;;1999.90;999.90;;;;;;;;;;5054813;28;20528;-84
2022/10/07 03:17:38;;;;;;;1999.90;999.90;;;10.30;1.00;;;;;;5054637;28;20080;-84
2022/10/07 03:20:08;;;;;;;1999.90;999.90;;;10.30;1.00;;;;;;5021219;28;20049;-84
2022/10/07 03:22:34;;;;;;;1999.90;999.90;;;10.30;1.00;;;;;;5055139;28;20045;-84
2022/10/07 03:25:00;;;;;;;1999.90;999.90;;;10.20;1.00;;;;;;5020904;28;20397;-84
2022/10/07 03:27:26;;;;;;;1999.90;999.90;;;10.90;15.50;;;;;;5070901;28;20045;-85
2022/10/07 03:29:53;;;;;;;1999.90;999.90;;;10.30;60.30;;;;;;5020667;28;20053;-89
2022/10/07 03:32:19;;;;;;;1999.90;999.90;;;10.20;25.70;;;;;;5037353;28;20059;-84
2022/10/07 03:34:45;;;;;;;1999.90;999.90;;;10.30;11.50;;;;;;5069799;28;20049;-84
2022/10/07 03:37:10;;;;;;;1999.90;999.90;;;10.10;1.00;;;;;;5053315;28;20045;-84
2022/10/07 03:39:36;;;;;;;1999.90;999.90;;;9.00;99.90;;;;;;5054932;28;20477;-84
2022/10/07 03:42:03;;;;;;;1999.90;999.90;;;10.20;99.90;;;;;;5069607;28;20482;-84
2022/10/07 03:44:29;;;;;;;1999.90;999.90;;;10.00;99.90;;;;;;5020479;28;20051;-84
2022/10/07 03:46:54;;;;;;;1999.90;999.90;;;10.30;99.90;;;;;;5053549;28;20128;-83
2022/10/07 03:49:20;;;;;;;1999.90;999.90;;;10.10;99.90;;;;;;5053807;28;20045;-83
2022/10/07 03:51:46;;;;;;;1999.90;999.90;;;10.10;99.90;;;;;;5054218;28;20041;-84
2022/10/07 03:54:12;;;;;;;1999.90;999.90;;;10.10;99.90;;;;;;5036943;28;20045;-84
2022/10/07 03:56:37;;;;;;;1999.90;999.90;;;10.00;99.90;;;;;;5052092;28;20385;-87
2022/10/07 03:59:03;;;;;;;1999.90;999.90;;;12.20;99.90;;;;;;5069445;28;20132;-84
2022/10/07 04:01:30;;;;;;;1999.90;999.90;;;10.70;99.90;;;;;;5069918;28;20052;-84
2022/10/07 04:03:56;;;;;;;1999.90;999.90;;;9.20;99.90;;;;;;5069330;28;20405;-89
2022/10/07 04:06:22;;;;;;;1999.90;999.90;;;10.10;99.90;;;;;;5050320;28;20129;-84
2022/10/07 04:08:52;;;;;;;1999.90;999.90;;;10.30;99.90;;;;;;5069299;28;20124;-83
2022/10/07 04:11:18;;;;;;;1999.90;999.90;;;9.50;99.90;;;;;;5053183;28;20434;-88
2022/10/07 04:13:44;;;;;;;1999.90;999.90;;;10.30;99.90;;;;;;5052624;28;20140;-85
2022/10/07 04:16:11;;;;;;;1999.90;999.90;;;9.10;1.00;;;;;;5034907;28;20088;-84
2022/10/07 04:18:40;;;;;;;1999.90;999.90;;;10.20;1.00;;;;;;5035960;28;20080;-83
2022/10/07 04:21:07;;;;;;;1999.90;999.90;;;10.40;1.00;;;;;;5054051;28;20072;-84
2022/10/07 04:23:33;;;;;;;1999.90;999.90;;;10.30;4.10;;;;;;5053672;28;20041;-83
2022/10/07 04:25:59;;;;;;;1999.90;999.90;;;10.30;39.80;;;;;;5053399;28;20044;-84
2022/10/07 04:28:25;;;;;;;1999.90;999.90;;;10.20;22.90;;;;;;5050549;28;20317;-83
2022/10/07 04:30:52;;;;;;;1999.90;999.90;;;10.20;1.00;;;;;;5052385;28;20041;-84
2022/10/07 04:33:20;;;;;;;1999.90;999.90;;;10.30;13.50;;;;;;5053310;28;20160;-84
2022/10/07 04:35:47;;;;;;;1999.90;999.90;;;11.20;43.50;;;;;;5035185;28;20131;-82
2022/10/07 04:38:14;;;;;;;1999.90;999.90;;;10.40;93.10;;;;;;5053373;28;20055;-82
2022/10/07 04:40:46;;;;;;;1999.90;999.90;;;10.40;99.90;;;;;;5053516;28;20045;-83
2022/10/07 04:43:18;;;;;;;1999.90;999.90;;;10.30;63.50;;;;;;5052474;28;20087;-83
2022/10/07 04:45:45;;;;;;;1999.90;999.90;;;10.40;99.90;;;;;;5035950;28;20040;-82
2022/10/07 04:48:11;;;;;;;1999.90;999.90;;;10.30;99.90;;;;;;5051001;28;20061;-83
2022/10/07 04:50:37;;;;;;;1999.90;999.90;;;10.40;99.90;;;;;;5052826;28;20396;-84
2022/10/07 04:53:13;;;;;;;1999.90;999.90;;;12.60;99.90;;;;;;5052348;28;20064;-83
2022/10/07 04:55:41;;;;;;;1999.90;999.90;;;10.50;99.90;;;;;;5034395;28;20489;-83
2022/10/07 04:58:07;;;;;;;1999.90;999.90;;;11.20;99.90;;;;;;5035172;28;20052;-83
2022/10/07 05:00:34;;;;;;;1999.90;999.90;;;10.70;99.90;;;;;;5034228;28;20045;-83
2022/10/07 05:03:00;;;;;;;1999.90;999.90;;;12.40;99.90;;;;;;5068214;28;20128;-83
2022/10/07 05:05:26;;;;;;;1999.90;999.90;;;10.60;99.90;;;;;;5035014;28;20045;-83
2022/10/07 05:07:53;;;;;;;1999.90;999.90;;;10.70;99.90;;;;;;5068272;28;20489;-82
2022/10/07 05:10:19;;;;;;;1999.90;999.90;;;10.60;99.90;;;;;;5052654;28;20055;-83
2022/10/07 05:12:45;;;;;;;1999.90;999.90;;;10.80;99.90;;;;;;5034552;28;20053;-82
2022/10/07 05:15:11;;;;;;;1999.90;999.90;;;10.70;99.90;;;;;;5018750;28;20053;-85
2022/10/07 05:17:39;;;;;;;1999.90;999.90;;;9.10;99.90;;;;;;5052771;28;20083;-88
2022/10/07 05:20:07;;;;;;;1999.90;999.90;;;10.60;99.90;;;;;;5052086;28;20079;-85
2022/10/07 05:22:32;;;;;;;1999.90;999.90;;;10.70;99.90;;;;;;5067470;28;20060;-83
2022/10/07 05:24:58;;;;;;;1999.90;999.90;;;11.00;99.90;;;;;;5067961;28;20056;-85
2022/10/07 05:27:24;;;;;;;1999.90;999.90;;;10.90;99.90;;;;;;5068089;28;20638;-83
2022/10/07 05:29:50;;;;;;;1999.90;999.90;;;10.80;47.00;;;;;;5018785;28;20056;-83
2022/10/07 05:32:16;;;;;;;1999.90;999.90;;;10.70;59.80;;;;;;5034790;28;20076;-84
2022/10/07 05:34:43;;;;;;;1999.90;999.90;;;10.80;77.10;;;;;;5035081;28;20375;-85
2022/10/07 05:37:10;;;;;;;1999.90;999.90;;;10.70;54.20;;;;;;5052097;28;20130;-84
2022/10/07 05:39:36;;;;;;;1999.90;999.90;;;10.90;19.00;;;;;;5019330;28;20064;-84
2022/10/07 05:42:02;;;;;;;1999.90;999.90;;;10.70;91.50;;;;;;5052474;28;20047;-84
2022/10/07 05:44:30;;;;;;;1999.90;999.90;;;10.70;99.90;;;;;;5035724;28;20053;-84
2022/10/07 05:46:57;;;;;;;1999.90;999.90;;;10.70;99.90;;;;;;5035995;28;20100;-84
2022/10/07 05:49:23;;;;;;;1999.90;999.90;;;10.70;99.90;;;;;;5051948;28;20044;-84
2022/10/07 05:51:50;;;;;;;1999.90;999.90;;;10.70;99.90;;;;;;5034871;28;20037;-84
2022/10/07 05:54:17;;;;;;;1999.90;999.90;;;10.70;99.90;;;;;;5034536;28;20045;-84
2022/10/07 05:56:42;;;;;;;1999.90;999.90;;;10.80;99.90;;;;;;5034869;28;20091;-84
2022/10/07 05:59:09;;;;;;;1999.90;999.90;;;10.90;99.90;;;;;;5018060;28;20504;-84
2022/10/07 06:01:40;;;;;;;1999.90;999.90;;;10.80;99.90;;;;;;5034515;28;20049;-85
2022/10/07 06:04:06;;;;;;;1999.90;999.90;;;10.80;99.00;;;;;;5067913;28;20045;-85
2022/10/07 06:06:34;;;;;;;1999.90;999.90;;;10.90;99.90;;;;;;5034562;28;20047;-84
2022/10/07 06:14:45;;;;;;;1999.90;999.90;;;12.10;1.00;;;;;;5043418;28;20083;-84
2022/10/07 06:17:11;;;;;;;1999.90;999.90;;;11.90;1.00;;;;;;5052376;28;20478;-84
2022/10/07 06:19:37;;;;;;;1999.90;999.90;;;11.90;1.00;;;;;;5067455;28;20053;-84
2022/10/07 06:22:03;;;;;;;1999.90;999.90;;;12.00;1.00;;;;;;5035996;28;20055;-84
2022/10/07 06:24:29;;;;;;;1999.90;999.90;;;11.20;1.00;;;;;;5072151;28;20040;-84
2022/10/07 06:26:54;;;;;;;1999.90;999.90;;;11.50;1.00;;;;;;5038737;28;20053;-84
2022/10/07 06:29:20;;;;;;;1999.90;999.90;;;11.00;1.00;;;;;;5038719;28;20052;-84
2022/10/07 06:31:46;;;;;;;1999.90;999.90;;;11.10;1.00;;;;;;5039014;28;20121;-84
2022/10/07 06:34:12;;;;;;;1999.90;999.90;;;11.10;1.00;;;;;;5039557;28;20454;-84
2022/10/07 06:36:38;;;;;;;1999.90;999.90;;;12.30;1.00;;;;;;5057389;28;20049;-84
2022/10/07 06:39:03;;;;;;;1999.90;999.90;;;11.40;99.90;;;;;;5055950;28;20397;-84
2022/10/07 06:41:29;;;;;;;1999.90;999.90;;;11.20;99.90;;;;;;5071376;28;20106;-83
2022/10/07 06:43:59;;;;;;;1999.90;999.90;;;11.30;99.90;;;;;;5056497;28;20485;-84
2022/10/07 06:46:25;;;;;;;1999.90;999.90;;;11.30;99.90;;;;;;5037679;28;20560;-84
2022/10/07 06:48:51;;;;;;;1999.90;999.90;;;11.50;99.90;;;;;;5054972;28;20170;-84
2022/10/07 06:51:21;;;;;;;1999.90;999.90;;;11.40;99.90;;;;;;5037935;28;20495;-87
2022/10/07 06:53:51;;;;;;;1999.90;999.90;;;11.70;99.90;;;;;;5054837;28;20051;-83
2022/10/07 06:56:17;;;;;;;1999.90;999.90;;;11.50;99.90;;;;;;5037399;28;20489;-86
2022/10/07 06:58:43;;;;;;;1999.90;999.90;;;11.50;99.90;;;;;;5071255;28;20132;-84
2022/10/07 07:01:08;;;;;;;1999.90;999.90;;;11.60;99.90;;;;;;5071017;28;20037;-90
2022/10/07 07:03:34;;;;;;;1999.90;999.90;;;11.60;99.90;;;;;;5021430;28;20110;-84
2022/10/07 07:06:01;;;;;;;1999.90;999.90;;;11.60;99.90;;;;;;5021628;28;20094;-84
2022/10/07 07:08:29;;;;;;;1999.90;999.90;;;13.40;91.40;;;;;;5037741;28;20546;-84
2022/10/07 07:10:55;;;;;;;1999.90;999.90;;;11.70;60.80;;;;;;5037822;28;20131;-84
2022/10/07 07:13:21;;;;;;;1999.90;999.90;;;11.90;50.90;;;;;;5052978;28;20132;-86
2022/10/07 07:15:59;;;;;;;1999.90;999.90;;;13.60;18.20;;;;;;5055369;28;20075;-83
2022/10/07 07:18:25;;;;;;;1999.90;999.90;;;11.80;2.50;;;;;;5037587;28;20107;-82
2022/10/07 07:20:52;;;;;;;1999.90;999.90;;;12.50;1.00;;;;;;5021338;28;20047;-83
2022/10/07 07:23:18;;;;;;;1999.90;999.90;;;11.90;1.00;;;;;;5054766;28;20559;-84
2022/10/07 07:25:44;;;;;;;1999.90;999.90;;;12.30;1.00;;;;;;5071026;28;20053;-88
2022/10/07 07:28:11;;;;;;;1999.90;999.90;;;12.10;1.00;;;;;;5020548;28;20048;-84
2022/10/07 07:30:38;;;;;;;1999.90;999.90;;;13.10;1.00;;;;;;5071067;28;20041;-83
2022/10/07 07:33:04;;;;;;;1999.90;999.90;;;13.90;1.00;;;;;;5036968;28;20049;-84
2022/10/07 07:35:31;;;;;;;1999.90;999.90;;;13.00;99.90;;;;;;5053694;28;20486;-84
2022/10/07 07:37:58;;;;;;;1999.90;999.90;;;12.20;99.90;;;;;;5053605;28;20052;-84
2022/10/07 07:40:25;;;;;;;1999.90;999.90;;;12.80;99.90;;;;;;5053262;28;20231;-85
2022/10/07 07:42:53;;;;;;;1999.90;999.90;;;12.40;99.90;;;;;;5036890;28;20049;-84
2022/10/07 07:45:19;;;;;;;1999.90;999.90;;;12.20;99.90;;;;;;5037141;28;20048;-85
2022/10/07 07:47:48;;;;;;;1999.90;999.90;;;14.50;99.90;;;;;;5053449;28;20123;-85
2022/10/07 07:50:16;;;;;;;1999.90;999.90;;;12.60;99.90;;;;;;5037442;28;20129;-84
2022/10/07 07:52:42;;;;;;;1999.90;999.90;;;12.70;99.90;;;;;;5070270;28;20052;-84
2022/10/07 07:55:07;;;;;;;1999.90;999.90;;;12.80;99.90;;;;;;5036962;28;20045;-84
2022/10/07 07:57:33;;;;;;;1999.90;999.90;;;12.80;99.90;;;;;;5053828;28;20055;-84
2022/10/07 07:59:59;;;;;;;1999.90;999.90;;;13.00;99.90;;;;;;5053378;28;20148;-85
2022/10/07 08:02:25;;;;;;;1999.90;999.90;;;13.40;99.90;;;;;;5054061;28;20411;-84
2022/10/07 08:04:50;;;;;;;1999.90;999.90;;;14.00;99.90;;;;;;5037024;28;20386;-83
2022/10/07 08:07:16;;;;;;;1999.90;999.90;;;14.30;6.00;;;;;;5053014;28;20080;-88
2022/10/07 08:09:42;;;;;;;1999.90;999.90;;;14.30;1.00;;;;;;5053871;28;20129;-85
2022/10/07 08:12:08;;;;;;;1999.90;999.90;;;;;;;;;;5019937;28;20052;-84
2022/10/07 08:14:36;;;;;;;1999.90;999.90;;;14.40;1.00;;;;;;5069414;28;20071;-84
2022/10/07 08:17:02;;;;;;;1999.90;999.90;;;14.50;1.00;;;;;;5036604;28;20091;-84
2022/10/07 08:19:29;;;;;;;1999.90;999.90;;;14.50;1.00;;;;;;5036364;28;20057;-84
2022/10/07 08:21:55;;;;;;;1999.90;999.90;;;14.60;1.00;;;;;;5070020;28;20075;-85
2022/10/07 08:24:24;;;;;;;1999.90;999.90;;;14.40;1.00;;;;;;5069799;28;20121;-84
2022/10/07 08:26:52;;;;;;;1999.90;999.90;;;14.90;1.00;;;;;;5036164;28;20131;-84
2022/10/07 08:29:19;;;;;;;1999.90;999.90;;;15.40;1.00;;;;;;5036038;28;20116;-90
2022/10/07 08:31:46;;;;;;;1999.90;999.90;;;16.40;1.00;;;;;;5020105;28;20095;-84
2022/10/07 08:34:12;;;;;;;1999.90;999.90;;;17.70;99.90;;;;;;5036281;28;20091;-84
2022/10/07 08:36:39;;;;;;;1999.90;999.90;;;18.10;99.90;;;;;;5052576;28;20045;-84
2022/10/07 08:39:05;;;;;;;1999.90;999.90;;;18.60;99.90;;;;;;5035858;28;20505;-84
2022/10/07 08:41:56;;;;;;;1999.90;999.90;;;19.30;99.90;;;;;;5086001;28;20049;-84
2022/10/07 08:44:26;;;;;;;1999.90;999.90;;;19.60;99.90;;;;;;5035002;28;20087;-83
2022/10/07 08:47:16;;;;;;;1999.90;999.90;;;19.80;99.90;;;;;;5019852;28;20049;-83
2022/10/07 08:50:16;;;;;;;1999.90;999.90;;;19.90;99.90;;;;;;5069293;28;20052;-83
2022/10/07 08:52:49;;;;;;;1999.90;999.90;;;19.60;99.90;;;;;;5019521;28;20059;-85
2022/10/07 08:55:25;;;;;;;1999.90;999.90;;;20.10;99.90;;;;;;5035977;28;20481;-84
2022/10/07 08:57:50;;;;;;;1999.90;999.90;;;18.40;99.90;;;;;;5068660;28;20499;-84
2022/10/07 09:00:20;;;;;;;1999.90;999.90;;;19.60;99.90;;;;;;5069431;28;20045;-83
2022/10/07 09:02:55;;;;;;;1999.90;999.90;;;19.30;99.90;;;;;;5053221;28;20198;-84
2022/10/07 09:05:28;;;;;;;1999.90;999.90;;;19.90;99.90;;;;;;5035972;28;20128;-83
2022/10/07 09:08:01;;;;;;;1999.90;999.90;;;19.30;99.90;;;;;;5068923;28;20045;-85
2022/10/07 09:10:43;;;;;;;1999.90;999.90;;;18.00;99.90;;;;;;5035431;28;20122;-85
2022/10/07 09:13:23;;;;;;;1999.90;999.90;;;20.40;99.90;;;;;;5035170;28;20478;-84
2022/10/07 09:15:55;;;;;;;1999.90;999.90;;;20.00;99.90;;;;;;5012511;28;20112;-84
2022/10/07 09:18:34;;;;;;;1999.90;999.90;;;19.00;99.90;;;;;;5012270;28;20061;-84
2022/10/07 09:21:04;;;;;;;1999.90;999.90;;;19.00;99.90;;;;;;4995901;28;20038;-83
2022/10/07 09:23:35;;;;;;;1999.90;999.90;;;18.90;99.90;;;;;;5012290;28;20053;-84
2022/10/07 09:26:09;;;;;;;1999.90;999.90;;;19.30;99.90;;;;;;5012669;28;20064;-84
2022/10/07 09:28:35;;;;;;;1999.90;999.90;;;17.70;99.90;;;;;;5011700;28;20100;-82
2022/10/07 09:31:01;;;;;;;1999.90;999.90;;;19.30;99.90;;;;;;4996136;28;20184;-82
2022/10/07 09:33:30;;;;;;;1999.90;999.90;;;19.60;99.90;;;;;;4995506;28;20053;-82
2022/10/07 09:36:11;;;;;;;1999.90;999.90;;;19.50;99.90;;;;;;5011962;28;20046;-84
2022/10/07 09:38:41;;;;;;;1999.90;999.90;;;19.10;99.90;;;;;;5028206;28;20053;-83
2022/10/07 09:41:24;;;;;;;1999.90;999.90;;;19.00;99.90;;;;;;5012150;28;20049;-83
2022/10/07 09:44:14;;;;;;;1999.90;999.90;;;18.40;99.90;;;;;;5012236;28;20049;-83
2022/10/07 09:46:50;;;;;;;1999.90;999.90;;;17.70;99.90;;;;;;5012087;28;20475;-83
2022/10/07 09:49:30;;;;;;;1999.90;999.90;;;17.60;99.90;;;;;;5013399;28;20089;-85
2022/10/07 09:52:04;;;;;;;1999.90;999.90;;;17.50;99.90;;;;;;5013454;28;20390;-84
2022/10/07 09:54:33;;;;;;;1999.90;999.90;;;17.30;99.90;;;;;;4995551;28;20042;-83
2022/10/07 09:57:00;;;;;;;1999.90;999.90;;;17.30;99.90;;;;;;4995496;28;20376;-82
2022/10/07 09:59:27;;;;;;;1999.90;999.90;;;17.20;99.90;;;;;;5012938;28;20050;-84
2022/10/07 10:01:57;;;;;;;1999.90;999.90;;;17.20;99.90;;;;;;5011968;28;20113;-83
2022/10/07 10:04:35;;;;;;;1999.90;999.90;;;17.40;99.90;;;;;;5012194;28;20042;-84
2022/10/07 10:07:28;;;;;;;1999.90;999.90;;;17.50;99.90;;;;;;5012165;28;20042;-82
2022/10/07 10:09:56;;;;;;;1999.90;999.90;;;17.40;99.90;;;;;;5011291;28;20124;-83
2022/10/07 10:12:24;;;;;;;1999.90;999.90;;;17.40;99.90;;;;;;5011607;28;20056;-85
2022/10/07 10:14:50;;;;;;;;;;;17.40;99.90;;;;;;5011174;28;20093;-84
2022/10/07 10:17:34;;;;;;;1999.90;999.90;;;17.50;99.90;;;;;;5012071;28;19921;-84
2022/10/07 10:20:43;;;;;;;1999.90;999.90;;;17.50;99.90;;;;;;4995404;28;20176;-84
2022/10/07 10:23:35;;;;;;;1999.90;999.90;;;17.50;99.90;;;;;;4995352;28;20050;-84
2022/10/07 10:26:25;;;;;;;1999.90;999.90;;;17.40;99.90;;;;;;5011940;28;20052;-84
2022/10/07 10:28:51;;;;;;;1999.90;999.90;;;17.40;99.90;;;;;;4995017;28;20046;-85
2022/10/07 10:31:52;;;;;;;1999.90;999.90;;;16.50;99.90;;;;;;4994683;28;20046;-84
2022/10/07 10:34:47;;;;;;;1999.90;999.90;;;17.40;99.90;;;;;;4992267;28;20124;-84
2022/10/07 10:37:20;;;;;;;1999.90;999.90;;;17.50;99.90;;;;;;5028139;28;20050;-85
2022/10/07 10:39:49;;;;;;;1999.90;999.90;;;17.50;99.90;;;;;;5011381;28;20506;-85
2022/10/07 10:42:23;;;;;;;1999.90;999.90;;;17.50;99.90;;;;;;4993958;28;20145;-85
2022/10/07 10:45:32;;;;;;;1999.90;999.90;;;17.50;99.90;;;;;;5011736;28;20061;-85
2022/10/07 10:48:10;;;;;;;1999.90;999.90;;;17.80;99.90;;;;;;5011159;28;20537;-86
2022/10/07 10:50:51;;;;;;;1999.90;999.90;;;17.80;99.90;;;;;;4994872;28;20053;-87
2022/10/07 10:53:43;;;;;;;1999.90;999.90;;;17.90;99.90;;;;;;5011485;28;20049;-84
2022/10/07 10:56:12;;;;;;;1999.90;999.90;;;17.90;99.90;;;;;;4995087;28;20132;-85
2022/10/07 10:59:08;;;;;;;1999.90;999.90;;;17.90;99.90;;;;;;4994613;28;20081;-86
2022/10/07 11:01:39;;;;;;;1999.90;999.90;;;18.10;99.90;;;;;;5011275;28;20076;-85
2022/10/07 11:04:23;;;;;;;1999.90;999.90;;;18.10;99.90;;;;;;5011496;28;20144;-86
2022/10/07 11:07:13;;;;;;;1999.90;999.90;;;18.40;99.90;;;;;;4994863;28;20057;-87
2022/10/07 11:09:48;;;;;;;1999.90;999.90;;;18.40;99.90;;;;;;5014928;28;20057;-87
2022/10/07 11:12:36;;;;;;;1999.90;999.90;;;18.00;99.90;;;;;;5015605;28;20049;-84
2022/10/07 11:15:20;;;;;;;1999.90;999.90;;;17.90;99.90;;;;;;5014305;28;20050;-88
2022/10/07 11:17:48;;;;;;;1999.90;999.90;;;18.00;99.90;;;;;;5014116;28;20058;-85
2022/10/07 11:20:38;;;;;;;1999.90;999.90;;;18.20;99.90;;;;;;5015866;28;20054;-84
2022/10/07 11:23:22;;;;;;;1999.90;999.90;;;18.30;99.90;;;;;;5014669;28;20059;-85
2022/10/07 11:26:17;;;;;;;1999.90;999.90;;;18.40;99.90;;;;;;4997324;28;20045;-84
2022/10/07 11:28:45;;;;;;;1999.90;999.90;;;18.60;99.90;;;;;;5014447;28;20052;-85
2022/10/07 11:31:33;;;;;;;1999.90;999.90;;;18.80;99.90;;;;;;5015701;28;20081;-87
2022/10/07 11:34:14;;;;;;;1999.90;999.90;;;19.30;99.90;;;;;;5015309;28;20466;-85
2022/10/07 11:37:17;;;;;;;1999.90;999.90;;;20.00;99.90;;;;;;5014206;28;20478;-84
2022/10/07 11:39:43;;;;;;;1999.90;999.90;;;19.90;99.90;;;;;;4990099;28;20080;-85
2022/10/07 11:42:21;;;;;;;1999.90;999.90;;;19.70;99.90;;;;;;4997609;28;20474;-83
2022/10/07 11:45:03;;;;;;;1999.90;999.90;;;19.10;99.90;;;;;;5015206;28;20042;-85
2022/10/07 11:47:40;;;;;;;1999.90;999.90;;;19.00;99.90;;;;;;5014126;28;20478;-84
2022/10/07 11:50:06;;;;;;;1999.90;999.90;;;18.80;99.90;;;;;;5015214;28;20130;-85
2022/10/07 11:52:37;;;;;;;1999.90;999.90;;;18.70;99.90;;;;;;5014355;28;20458;-85
2022/10/07 11:55:26;;;;;;;1999.90;999.90;;;18.80;99.90;;;;;;4997654;28;20135;-85
2022/10/07 11:57:57;;;;;;;1999.90;999.90;;;18.80;99.90;;;;;;4996997;28;20050;-85
2022/10/07 12:00:27;;;;;;;1999.90;999.90;;;18.90;99.90;;;;;;5014006;28;20077;-83
2022/10/07 12:02:54;;;;;;;1999.90;999.90;;;18.60;99.90;;;;;;5013937;28;20100;-84
2022/10/07 12:05:35;;;;;;;1999.90;999.90;;;18.50;99.90;;;;;;5014332;28;20061;-85
2022/10/07 12:08:22;;;;;;;1999.90;999.90;;;18.40;99.90;;;;;;5013602;28;20490;-85
2022/10/07 12:10:54;;;;;;;1999.90;999.90;;;18.20;99.90;;;;;;5013744;28;20486;-85
2022/10/07 12:13:20;;;;;;;1999.90;999.90;;;18.00;99.90;;;;;;4997589;28;20062;-86
2022/10/07 12:15:50;;;;;;;1999.90;999.90;;;17.90;99.90;;;;;;4997109;28;20088;-84
2022/10/07 12:18:16;;;;;;;1999.90;999.90;;;17.80;99.90;;;;;;5029288;28;20056;-86
2022/10/07 12:20:55;;;;;;;1999.90;999.90;;;17.70;99.90;;;;;;5014044;28;20046;-85
2022/10/07 12:23:21;;;;;;;1999.90;999.90;;;17.70;99.90;;;;;;5013961;28;20104;-87
2022/10/07 12:25:46;;;;;;;1999.90;999.90;;;17.80;99.90;;;;;;5013680;28;20128;-89
2022/10/07 12:28:34;;;;;;;1999.90;999.90;;;17.80;99.90;;;;;;4997022;28;20143;-85
2022/10/07 12:31:04;;;;;;;1999.90;999.90;;;17.90;99.90;;;;;;4997080;28;20050;-85